Terminal Aerodrome Forecast
Issued by NWS Charleston, WV

Current Version | Previous Version | Graphics & Text | Print | Product List | Glossary On
Versions: 1 2 3 4 5 6 7 8 9 10 11 12 13 14 15 16 17 18 19 20 21 22 23 24 25
654
FTUS41 KRLX 260249 AAB
TAFBKW
TAF AMD
KBKW 260249Z 2603/2624 00000KT P6SM BKN030
     FM260400 00000KT P6SM SKC
     FM260600 00000KT 3SM BR SKC
     FM260700 00000KT 1 1/2SM BR SCT001
     FM260900 00000KT 1/4SM FG VV001
     FM261300 00000KT 1SM BR BKN002
     FM261400 00000KT P6SM SKC
     FM261600 23004KT P6SM SCT015
     FM261700 23004KT P6SM SCT025
     FM262000 20005KT P6SM SKC=

USA.gov is the U.S. government's official web portal to all federal, state and local government web resources and services.